Garden Plain, Kansas
Current Conditions -  °F | °C
As of 5:53 PM on Monday 20 Oct 2014 (Local Time) from KICT Reporting Station
Clear Clear  
Wind Chill: 26°   Ceiling: Unl
Heat Index: 26°   Visibility: 10mi
Dew Point:   Wind: 8mph
Humidity: 31%   Direction: 40°NE
Pressure: 30.03"   Gusts: NA
Location:  37.66°N, 97.68°W
Report Text: KICT 202253Z 04007KT 10SM CLR 26/07 A3003 RMK AO2 SLP159 T02560072
Loading
Personal Weather Stations






























Interactive Weather Map
Tropical Storm Tracking
New forecast layout! Learn more

10-Day Weather Forecast

Advertisements
Track Severe Weather on mobile